Hovedside
METAR-TAF:

METAR-TAF

Lufthavner :

Katima Mulilo, Namibia

breddegrad: 17-38-04S, lengdegrad: 024-10-36E, høyde over havet: 985 m

Gjeldene værobservasjon

Denne rapporten ble laget for 1 time og 8 minutter siden, klokken 20:00 UTC
Vind 3 kt fra Øst
Temperatur 23°C
Luftfuktighet 53%
Trykk 1015 hPa

METAR: FYKM 302000Z AUTO 08003KT //// // ////// 23/13 Q1015

Tid: 23:08 (21:08 UTC)

Varsel

Denne rapporten ble laget for 1 time og 8 minutter siden, klokken 20:00 UTC
Varsel gyldig fra 30. klokken 21 UTC til 01. klokken 06 UTC
Vind 4 kt fra Øst-nordøst
Sikt 10 km eller mer
ingen skyer under 1500 m og ingen bygeskyer

TAF: FYKM 302000Z 3021/0106 07004KT CAVOK

Værobservasjoner og værvarsel for over 4000 flyplasser (METAR- og TAF-rapporter).

Tilgjengelige stasjoner er representert av de røde og gule prikkene på kartet.

Hold musepekeren over prikken for å se navnet på stasjonen.

Klikk så for å se værobservasjoner og -varsler.

For å forandre kartet kan du klikke på den grønne knappen med svart kryss for å zoome inn, på den grønne knappen med strek for å zoome ut, eller på de grønne pilene for å se tilstøtende kart.


METAR-TAF: